Time;durP1;ratioP1;P1;durP2;ratioP2;P2;SDS_P1;SDS_P2;PMS_P1;PMS_P2;Temp;Humidity;BMP_temperature;BMP_pressure;BME280_temperature;BME280_humidity;BME280_pressure;Samples;Min_cycle;Max_cycle;Signal;HPM_P1;HPM_P2
2023/09/23 00:02:43;;;;;;;14.40;9.70;;;;;;;;;;2614025;39;20715;-78
2023/09/23 00:08:12;;;;;;;10.47;7.17;;;;;;;;;;2612413;54;21318;-76
2023/09/23 00:13:42;;;;;;;12.27;9.10;;;;;;;;;;2612461;54;20443;-77
2023/09/23 00:19:12;;;;;;;12.93;9.60;;;;;;;;;;2611862;54;20496;-77
2023/09/23 00:24:42;;;;;;;14.40;8.93;;;;;;;;;;2612093;54;20374;-77
2023/09/23 00:30:12;;;;;;;11.47;8.43;;;;;;;;;;2612223;54;20452;-77
2023/09/23 00:39:23;;;;;;;13.17;9.40;;;;;;;;;;2612858;54;20963;-77
2023/09/23 00:44:52;;;;;;;14.40;9.93;;;;;;;;;;2611154;54;20402;-78
2023/09/23 00:50:22;;;;;;;11.07;7.33;;;;;;;;;;2611672;54;20402;-77
2023/09/23 00:55:52;;;;;;;9.80;7.70;;;;;;;;;;2611763;54;21043;-76
2023/09/23 01:01:21;;;;;;;9.60;7.60;;;;;;;;;;2612577;54;20438;-77
2023/09/23 01:06:51;;;;;;;10.40;7.03;;;;;;;;;;2612107;54;20950;-75
2023/09/23 01:12:21;;;;;;;8.47;6.37;;;;;;;;;;2611555;54;20390;-76
2023/09/23 01:17:53;;;;;;;5.20;3.60;;;;;;;;;;2611808;39;20920;-76
2023/09/23 01:23:23;;;;;;;9.97;5.73;;;;;;;;;;2611871;54;20395;-78
2023/09/23 01:28:54;;;;;;;7.07;5.37;;;;;;;;;;2611734;54;20415;-78
2023/09/23 01:34:24;;;;;;;7.07;3.97;;;;;;;;;;2611291;54;20399;-74
2023/09/23 01:39:54;;;;;;;4.20;3.60;;;;;;;;;;2611957;54;20458;-75
2023/09/23 01:45:25;;;;;;;7.63;4.97;;;;;;;;;;2611652;54;20378;-75
2023/09/23 01:50:56;;;;;;;5.27;3.80;;;;;;;;;;2611237;54;20378;-75
2023/09/23 01:56:26;;;;;;;6.40;4.07;;;;;;;;;;2611383;54;20379;-75
2023/09/23 02:01:56;;;;;;;5.80;4.00;;;;;;;;;;2611484;54;20367;-75
2023/09/23 02:07:29;;;;;;;6.77;4.43;;;;;;;;;;2610829;54;20429;-76
2023/09/23 02:12:59;;;;;;;5.53;4.50;;;;;;;;;;2611965;54;20358;-76
2023/09/23 02:18:28;;;;;;;6.60;4.70;;;;;;;;;;2611910;54;20928;-77
2023/09/23 02:23:58;;;;;;;7.30;5.60;;;;;;;;;;2611861;54;20394;-77
2023/09/23 02:29:28;;;;;;;7.30;5.90;;;;;;;;;;2611707;54;20486;-75
2023/09/23 02:34:58;;;;;;;9.90;6.50;;;;;;;;;;2611727;39;20665;-77
2023/09/23 02:46:35;;;;;;;8.83;7.43;;;;;;;;;;2612178;54;20467;-77
2023/09/23 02:52:06;;;;;;;11.50;6.83;;;;;;;;;;2611940;54;20395;-78
2023/09/23 02:57:36;;;;;;;11.40;8.20;;;;;;;;;;2610973;54;20410;-76
2023/09/23 03:03:12;;;;;;;12.90;7.57;;;;;;;;;;2610966;54;20394;-76
2023/09/23 03:08:47;;;;;;;8.23;6.57;;;;;;;;;;2612040;31;20839;-76
2023/09/23 03:14:18;;;;;;;9.97;6.47;;;;;;;;;;2611131;54;20406;-76
2023/09/23 03:19:50;;;;;;;8.77;5.47;;;;;;;;;;2611627;39;20912;-76
2023/09/23 03:25:20;;;;;;;7.53;5.10;;;;;;;;;;2611073;54;20395;-77
2023/09/23 03:36:46;;;;;;;7.17;5.37;;;;;;;;;;2610518;54;21853;-77
2023/09/23 03:39:41;;;;;;;6.93;4.40;;;;;;;;;;2612033;39;20801;-77
2023/09/23 03:42:09;;;;;;;6.70;5.13;;;;;;;;;;2610932;39;20763;-76
2023/09/23 03:47:38;;;;;;;8.00;4.37;;;;;;;;;;2611056;54;20370;-78
2023/09/23 03:53:10;;;;;;;6.07;3.60;;;;;;;;;;2612082;39;20787;-77
2023/09/23 03:58:40;;;;;;;11.23;5.33;;;;;;;;;;2612560;54;21021;-76
2023/09/23 04:04:10;;;;;;;5.00;3.57;;;;;;;;;;2612821;54;20926;-77
2023/09/23 04:09:40;;;;;;;10.80;4.90;;;;;;;;;;2612310;39;20942;-78
2023/09/23 04:15:11;;;;;;;8.63;4.43;;;;;;;;;;2613706;54;20391;-78
2023/09/23 04:20:43;;;;;;;7.50;5.00;;;;;;;;;;2611739;54;20424;-78
2023/09/23 04:26:13;;;;;;;9.23;4.43;;;;;;;;;;2611563;54;20383;-78
2023/09/23 04:31:42;;;;;;;8.60;4.23;;;;;;;;;;2611802;54;20353;-79
2023/09/23 04:37:12;;;;;;;5.37;3.40;;;;;;;;;;2611513;54;20427;-79
2023/09/23 04:39:39;;;;;;;5.90;3.60;;;;;;;;;;2611107;54;20407;-79
2023/09/23 04:42:05;;;;;;;7.53;2.90;;;;;;;;;;2612915;39;20884;-78
2023/09/23 04:47:35;;;;;;;5.67;3.20;;;;;;;;;;2612238;54;20370;-78
2023/09/23 04:53:06;;;;;;;6.87;3.17;;;;;;;;;;2611089;54;20382;-78
2023/09/23 04:58:37;;;;;;;4.73;3.10;;;;;;;;;;2611251;54;20402;-77
2023/09/23 05:04:07;;;;;;;9.43;4.47;;;;;;;;;;2611779;54;20395;-78
2023/09/23 05:09:38;;;;;;;5.50;4.00;;;;;;;;;;2611288;54;20408;-77
2023/09/23 05:15:14;;;;;;;7.93;2.87;;;;;;;;;;2611408;54;20415;-76
2023/09/23 05:20:47;;;;;;;5.70;3.70;;;;;;;;;;2611590;46;20509;-79
2023/09/23 05:26:19;;;;;;;10.23;4.07;;;;;;;;;;2611791;54;20535;-75
2023/09/23 05:31:48;;;;;;;10.77;4.93;;;;;;;;;;2612317;54;20387;-75
2023/09/23 05:37:18;;;;;;;8.43;3.50;;;;;;;;;;2614278;54;20359;-76
2023/09/23 05:46:29;;;;;;;19.37;4.50;;;;;;;;;;2612146;39;20911;-76
2023/09/23 05:51:58;;;;;;;4.13;3.40;;;;;;;;;;2612047;54;20402;-77
2023/09/23 05:57:28;;;;;;;4.30;3.87;;;;;;;;;;2612265;54;20350;-75
2023/09/23 06:02:58;;;;;;;5.50;3.77;;;;;;;;;;2610464;54;20390;-76
2023/09/23 06:08:28;;;;;;;11.13;3.97;;;;;;;;;;2613186;31;20843;-75
2023/09/23 06:13:58;;;;;;;12.37;7.00;;;;;;;;;;2614935;39;20867;-77
2023/09/23 06:19:28;;;;;;;7.20;3.73;;;;;;;;;;2614802;54;20398;-76
2023/09/23 06:24:57;;;;;;;8.90;4.57;;;;;;;;;;2614743;54;20436;-77
2023/09/23 06:30:27;;;;;;;9.77;6.93;;;;;;;;;;2614772;39;20825;-76
2023/09/23 06:36:01;;;;;;;6.93;4.30;;;;;;;;;;2612066;54;20419;-76
2023/09/23 06:41:31;;;;;;;6.27;4.60;;;;;;;;;;2613068;54;20361;-75
2023/09/23 06:47:01;;;;;;;9.60;4.73;;;;;;;;;;2614987;54;20544;-75
2023/09/23 06:52:31;;;;;;;7.73;4.13;;;;;;;;;;2613709;54;20391;-75
2023/09/23 06:58:00;;;;;;;7.80;4.33;;;;;;;;;;2614768;54;20383;-75
2023/09/23 07:03:30;;;;;;;5.73;3.93;;;;;;;;;;2614093;54;20513;-76
2023/09/23 07:09:00;;;;;;;9.93;3.70;;;;;;;;;;2614273;54;20426;-76
2023/09/23 07:14:31;;;;;;;12.43;5.07;;;;;;;;;;2615020;54;20383;-74
2023/09/23 07:20:00;;;;;;;7.93;4.63;;;;;;;;;;2612980;54;20387;-74
2023/09/23 07:25:30;;;;;;;5.53;4.40;;;;;;;;;;2613374;54;20506;-75
2023/09/23 07:31:00;;;;;;;8.17;5.00;;;;;;;;;;2613940;54;20387;-76
2023/09/23 07:36:30;;;;;;;4.40;3.53;;;;;;;;;;2614673;54;20369;-76
2023/09/23 07:41:59;;;;;;;7.57;4.70;;;;;;;;;;2614391;54;20977;-76
2023/09/23 07:50:58;;;;;;;7.63;4.90;;;;;;;;;;2614923;54;20389;-75
2023/09/23 07:56:28;;;;;;;6.40;4.13;;;;;;;;;;2613622;54;20411;-74
2023/09/23 08:01:57;;;;;;;5.77;4.40;;;;;;;;;;2614194;54;20387;-73
2023/09/23 08:07:27;;;;;;;4.00;3.60;;;;;;;;;;2614018;54;20491;-75
2023/09/23 08:12:57;;;;;;;5.67;3.80;;;;;;;;;;2614724;39;20741;-75
2023/09/23 08:18:27;;;;;;;8.93;3.43;;;;;;;;;;2614739;54;20495;-75
2023/09/23 08:23:57;;;;;;;4.40;3.77;;;;;;;;;;2614359;54;20355;-75
2023/09/23 08:29:29;;;;;;;5.90;3.43;;;;;;;;;;2614127;54;20433;-74
2023/09/23 08:34:59;;;;;;;4.90;3.50;;;;;;;;;;2614467;54;20371;-75
2023/09/23 08:40:33;;;;;;;11.00;5.00;;;;;;;;;;2613744;54;20410;-75
2023/09/23 08:46:05;;;;;;;5.60;4.50;;;;;;;;;;2614187;54;20975;-74
2023/09/23 08:51:35;;;;;;;7.10;4.37;;;;;;;;;;2613345;46;20462;-75
2023/09/23 08:57:05;;;;;;;5.93;3.57;;;;;;;;;;2613554;54;20414;-76
2023/09/23 09:02:35;;;;;;;4.70;4.20;;;;;;;;;;2613916;54;20358;-74
2023/09/23 09:08:05;;;;;;;8.17;3.87;;;;;;;;;;2613325;54;20386;-75
2023/09/23 09:13:36;;;;;;;7.73;4.57;;;;;;;;;;2613764;54;20960;-75
2023/09/23 09:19:05;;;;;;;4.23;3.83;;;;;;;;;;2614344;54;20394;-75
2023/09/23 09:24:35;;;;;;;3.90;3.60;;;;;;;;;;2614213;54;20981;-76
2023/09/23 09:30:11;;;;;;;5.23;4.37;;;;;;;;;;2614428;54;20439;-75
2023/09/23 09:35:41;;;;;;;4.80;4.40;;;;;;;;;;2615057;54;20402;-76
2023/09/23 09:41:15;;;;;;;4.40;4.00;;;;;;;;;;2614678;54;20909;-77
2023/09/23 09:46:45;;;;;;;4.07;3.77;;;;;;;;;;2614745;54;20510;-77
2023/09/23 09:55:56;;;;;;;4.00;3.70;;;;;;;;;;2615259;54;20421;-77
2023/09/23 10:01:25;;;;;;;6.23;5.53;;;;;;;;;;2615200;39;20775;-77
2023/09/23 10:06:55;;;;;;;5.03;4.50;;;;;;;;;;2614956;54;20976;-77
2023/09/23 10:12:26;;;;;;;5.00;4.50;;;;;;;;;;2613811;54;20394;-77
2023/09/23 10:17:57;;;;;;;5.93;5.33;;;;;;;;;;2616040;54;20338;-78
2023/09/23 10:23:26;;;;;;;5.00;4.60;;;;;;;;;;2613500;54;20423;-77
2023/09/23 10:28:59;;;;;;;6.17;5.50;;;;;;;;;;2614439;54;20603;-78
2023/09/23 10:34:29;;;;;;;5.87;5.47;;;;;;;;;;2614879;39;20820;-78
2023/09/23 10:45:53;;;;;;;6.50;5.90;;;;;;;;;;2613220;54;20390;-76
2023/09/23 10:51:23;;;;;;;5.80;5.40;;;;;;;;;;2612662;54;20403;-76
2023/09/23 10:56:52;;;;;;;5.27;4.87;;;;;;;;;;2614649;54;20383;-75
2023/09/23 11:02:23;;;;;;;6.23;5.73;;;;;;;;;;2613995;54;20391;-76
2023/09/23 11:07:54;;;;;;;7.70;6.03;;;;;;;;;;2611566;54;20403;-77
2023/09/23 11:13:25;;;;;;;5.63;5.27;;;;;;;;;;2614357;54;20386;-77
2023/09/23 11:18:57;;;;;;;6.70;6.00;;;;;;;;;;2614515;54;20363;-76
2023/09/23 11:30:25;;;;;;;5.90;5.60;;;;;;;;;;2613887;54;20961;-77
2023/09/23 11:35:57;;;;;;;7.20;6.60;;;;;;;;;;2613750;54;20941;-76
2023/09/23 11:41:27;;;;;;;6.00;5.60;;;;;;;;;;2614348;54;20362;-77
2023/09/23 11:46:56;;;;;;;6.30;5.90;;;;;;;;;;2613976;54;20436;-78
2023/09/23 11:56:11;;;;;;;7.20;6.60;;;;;;;;;;2614839;54;20406;-80
2023/09/23 12:01:41;;;;;;;7.33;6.23;;;;;;;;;;2614696;54;20391;-80
2023/09/23 12:07:11;;;;;;;6.47;6.07;;;;;;;;;;2613382;54;20399;-78
2023/09/23 12:12:42;;;;;;;6.37;5.97;;;;;;;;;;2614605;54;20411;-79
2023/09/23 12:18:12;;;;;;;6.53;6.03;;;;;;;;;;2614865;54;20370;-79
2023/09/23 12:23:42;;;;;;;6.57;6.27;;;;;;;;;;2614270;39;21241;-79
2023/09/23 12:26:28;;;;;;;7.30;6.70;;;;;;;;;;2614367;54;20419;-80
2023/09/23 12:28:55;;;;;;;7.00;6.33;;;;;;;;;;2613479;54;20406;-79
2023/09/23 12:34:25;;;;;;;7.20;6.80;;;;;;;;;;2614659;54;20410;-78
2023/09/23 12:39:58;;;;;;;7.30;6.70;;;;;;;;;;2614876;54;20919;-78
2023/09/23 12:45:27;;;;;;;6.70;6.37;;;;;;;;;;2615601;54;20410;-78
2023/09/23 12:50:56;;;;;;;6.90;6.40;;;;;;;;;;2615561;54;20841;-79
2023/09/23 12:56:26;;;;;;;7.30;6.90;;;;;;;;;;2615700;54;20358;-79
2023/09/23 13:01:56;;;;;;;6.73;6.33;;;;;;;;;;2615773;54;20382;-78
2023/09/23 13:07:25;;;;;;;7.40;6.80;;;;;;;;;;2615568;54;20471;-78
2023/09/23 13:12:55;;;;;;;6.67;6.37;;;;;;;;;;2614963;54;21303;-79
2023/09/23 13:18:25;;;;;;;7.80;7.20;;;;;;;;;;2616862;39;20797;-78
2023/09/23 13:23:55;;;;;;;6.80;6.37;;;;;;;;;;2614292;54;20402;-79
2023/09/23 13:29:24;;;;;;;7.07;6.57;;;;;;;;;;2615550;47;20387;-78
2023/09/23 13:34:54;;;;;;;7.20;6.70;;;;;;;;;;2615123;54;20411;-78
2023/09/23 13:40:23;;;;;;;7.20;6.70;;;;;;;;;;2615659;54;20379;-78
2023/09/23 13:45:53;;;;;;;7.10;6.70;;;;;;;;;;2615999;54;20426;-79
2023/09/23 13:51:23;;;;;;;7.33;6.87;;;;;;;;;;2615288;54;20379;-79
2023/09/23 13:56:52;;;;;;;7.50;7.07;;;;;;;;;;2614116;54;20450;-79
2023/09/23 14:02:23;;;;;;;8.27;7.57;;;;;;;;;;2615625;39;20770;-78
2023/09/23 14:07:52;;;;;;;7.10;6.60;;;;;;;;;;2614251;54;20394;-78
2023/09/23 14:13:22;;;;;;;8.00;7.40;;;;;;;;;;2612829;54;20430;-77
2023/09/23 14:18:52;;;;;;;7.83;7.27;;;;;;;;;;2612763;54;20470;-75
2023/09/23 14:24:21;;;;;;;7.23;6.67;;;;;;;;;;2614674;54;20949;-76
2023/09/23 14:29:51;;;;;;;7.70;6.97;;;;;;;;;;2611105;54;20431;-76
2023/09/23 14:35:21;;;;;;;7.80;7.30;;;;;;;;;;2613891;47;20866;-76
2023/09/23 14:40:50;;;;;;;7.93;7.27;;;;;;;;;;2612128;54;20390;-76
2023/09/23 14:46:20;;;;;;;6.70;6.30;;;;;;;;;;2613377;54;20399;-77
2023/09/23 14:51:50;;;;;;;7.60;6.80;;;;;;;;;;2612521;54;20394;-74
2023/09/23 15:00:58;;;;;;;6.53;6.23;;;;;;;;;;2612079;54;20463;-76
2023/09/23 15:06:28;;;;;;;7.53;7.03;;;;;;;;;;2613349;54;20370;-78
2023/09/23 15:11:57;;;;;;;6.57;6.20;;;;;;;;;;2612904;39;20810;-75
2023/09/23 15:17:27;;;;;;;5.87;5.47;;;;;;;;;;2612327;54;20390;-75
2023/09/23 15:23:01;;;;;;;6.33;5.73;;;;;;;;;;2610968;54;20398;-75
2023/09/23 15:28:32;;;;;;;5.77;5.13;;;;;;;;;;2613416;54;20440;-76
2023/09/23 15:34:03;;;;;;;6.83;6.23;;;;;;;;;;2613625;54;20395;-77
2023/09/23 15:39:33;;;;;;;10.53;5.43;;;;;;;;;;2614101;54;20427;-76
2023/09/23 15:45:03;;;;;;;7.17;4.73;;;;;;;;;;2613674;54;20390;-76
2023/09/23 15:50:32;;;;;;;5.70;5.13;;;;;;;;;;2612383;54;20384;-76
2023/09/23 15:56:03;;;;;;;5.20;4.70;;;;;;;;;;2611862;54;20378;-75
2023/09/23 16:01:33;;;;;;;5.97;5.40;;;;;;;;;;2611369;54;20402;-74
2023/09/23 16:07:02;;;;;;;6.00;5.40;;;;;;;;;;2614569;54;20415;-75
2023/09/23 16:09:47;;;;;;;7.20;5.97;;;;;;;;;;2613508;39;20829;-76
2023/09/23 16:12:14;;;;;;;7.27;5.83;;;;;;;;;;2613367;47;20981;-76
2023/09/23 16:17:43;;;;;;;9.70;5.87;;;;;;;;;;2614086;54;20391;-76
2023/09/23 16:23:13;;;;;;;6.03;5.50;;;;;;;;;;2614634;39;20912;-75
2023/09/23 16:28:43;;;;;;;5.93;5.43;;;;;;;;;;2615913;54;20411;-76
2023/09/23 16:34:13;;;;;;;6.13;5.60;;;;;;;;;;2616149;54;20386;-76
2023/09/23 16:39:42;;;;;;;5.90;5.30;;;;;;;;;;2616439;54;20410;-77
2023/09/23 16:45:13;;;;;;;5.80;5.30;;;;;;;;;;2616510;54;20455;-77
2023/09/23 16:50:43;;;;;;;7.83;5.33;;;;;;;;;;2613976;54;20402;-77
2023/09/23 16:56:12;;;;;;;6.97;6.40;;;;;;;;;;2614635;54;20471;-76
2023/09/23 17:01:42;;;;;;;8.07;6.93;;;;;;;;;;2610928;46;20487;-77
2023/09/23 17:07:13;;;;;;;5.87;5.37;;;;;;;;;;2614686;54;20439;-76
2023/09/23 17:12:43;;;;;;;6.87;6.43;;;;;;;;;;2615936;54;20524;-76
2023/09/23 17:18:15;;;;;;;10.60;6.10;;;;;;;;;;2614101;54;20419;-75
2023/09/23 17:23:44;;;;;;;6.90;5.90;;;;;;;;;;2614295;54;20409;-74
2023/09/23 17:29:14;;;;;;;5.83;5.20;;;;;;;;;;2615871;54;20362;-79
2023/09/23 17:34:43;;;;;;;7.17;5.90;;;;;;;;;;2612717;54;20406;-75
2023/09/23 17:40:14;;;;;;;5.80;5.30;;;;;;;;;;2613270;54;20399;-75
2023/09/23 17:45:43;;;;;;;6.80;5.30;;;;;;;;;;2615432;47;20382;-77
2023/09/23 17:51:13;;;;;;;5.30;4.90;;;;;;;;;;2613548;54;20424;-77
2023/09/23 17:56:43;;;;;;;9.20;5.63;;;;;;;;;;2614938;54;21043;-77
2023/09/23 18:08:20;;;;;;;7.17;5.00;;;;;;;;;;2614357;54;20387;-76
2023/09/23 18:13:49;;;;;;;10.30;5.50;;;;;;;;;;2614087;54;20428;-77
2023/09/23 18:19:19;;;;;;;5.07;4.57;;;;;;;;;;2613560;54;20411;-76
2023/09/23 18:24:49;;;;;;;5.43;4.93;;;;;;;;;;2612322;39;20886;-76
2023/09/23 18:30:19;;;;;;;5.70;5.20;;;;;;;;;;2612327;54;20501;-75
2023/09/23 18:35:49;;;;;;;5.47;5.07;;;;;;;;;;2613460;39;20848;-77
2023/09/23 18:41:19;;;;;;;7.00;6.40;;;;;;;;;;2613398;39;20922;-76
2023/09/23 18:46:48;;;;;;;9.57;5.43;;;;;;;;;;2614293;54;20371;-76
2023/09/23 18:52:18;;;;;;;5.30;4.90;;;;;;;;;;2612194;54;20395;-76
2023/09/23 18:57:48;;;;;;;9.33;5.50;;;;;;;;;;2612735;54;20375;-76
2023/09/23 19:07:01;;;;;;;6.50;4.83;;;;;;;;;;2613984;54;20410;-77
2023/09/23 19:12:31;;;;;;;5.93;5.40;;;;;;;;;;2611119;54;20373;-75
2023/09/23 19:18:01;;;;;;;5.60;5.10;;;;;;;;;;2611475;54;20415;-75
2023/09/23 19:23:31;;;;;;;5.70;5.00;;;;;;;;;;2610874;54;20972;-76
2023/09/23 19:29:01;;;;;;;5.53;5.13;;;;;;;;;;2611641;39;20631;-76
2023/09/23 19:34:31;;;;;;;6.00;5.40;;;;;;;;;;2607634;54;20408;-76
2023/09/23 19:40:01;;;;;;;7.03;5.40;;;;;;;;;;2607035;54;20386;-76
2023/09/23 19:45:31;;;;;;;8.60;6.50;;;;;;;;;;2602096;54;20463;-77
2023/09/23 19:51:03;;;;;;;6.00;5.40;;;;;;;;;;2609114;54;20436;-77
2023/09/23 19:56:33;;;;;;;8.53;5.90;;;;;;;;;;2611565;54;20387;-77
2023/09/23 20:02:02;;;;;;;6.43;5.80;;;;;;;;;;2609489;54;20953;-76
2023/09/23 20:07:34;;;;;;;5.40;4.90;;;;;;;;;;2613501;54;20387;-77
2023/09/23 20:13:04;;;;;;;8.53;5.63;;;;;;;;;;2613248;54;20514;-76
2023/09/23 20:18:34;;;;;;;6.80;5.90;;;;;;;;;;2610527;54;20415;-75
2023/09/23 20:24:04;;;;;;;6.30;5.80;;;;;;;;;;2611057;39;20910;-77
2023/09/23 20:29:34;;;;;;;6.10;5.37;;;;;;;;;;2608009;54;20929;-77
2023/09/23 20:35:06;;;;;;;7.47;5.60;;;;;;;;;;2609905;54;20455;-77
2023/09/23 20:40:37;;;;;;;6.57;5.77;;;;;;;;;;2610505;54;20392;-78
2023/09/23 20:46:10;;;;;;;8.60;6.17;;;;;;;;;;2609605;54;20395;-77
2023/09/23 20:51:39;;;;;;;7.70;5.60;;;;;;;;;;2610897;54;20395;-78
2023/09/23 20:57:09;;;;;;;10.80;6.57;;;;;;;;;;2610879;39;20857;-79
2023/09/23 21:08:47;;;;;;;6.50;5.90;;;;;;;;;;2607995;54;21143;-78
2023/09/23 21:14:17;;;;;;;6.50;5.73;;;;;;;;;;2609937;39;20770;-77
2023/09/23 21:19:46;;;;;;;10.73;6.10;;;;;;;;;;2608769;54;20375;-80
2023/09/23 21:25:16;;;;;;;7.90;5.23;;;;;;;;;;2608371;54;20391;-80
2023/09/23 21:30:46;;;;;;;11.10;6.93;;;;;;;;;;2608649;54;20395;-80
2023/09/23 21:36:16;;;;;;;6.37;5.80;;;;;;;;;;2608233;54;20390;-79
2023/09/23 21:41:46;;;;;;;8.20;6.53;;;;;;;;;;2607588;54;20387;-80
2023/09/23 21:47:17;;;;;;;7.17;6.47;;;;;;;;;;2611663;54;20439;-80
2023/09/23 21:50:02;;;;;;;6.87;6.27;;;;;;;;;;2612134;54;20407;-80
2023/09/23 21:52:28;;;;;;;10.77;7.00;;;;;;;;;;2612990;54;20523;-80
2023/09/23 21:57:58;;;;;;;11.97;7.33;;;;;;;;;;2613178;39;20855;-80
2023/09/23 22:07:02;;;;;;;7.67;6.70;;;;;;;;;;2611175;54;20384;-80
2023/09/23 22:12:31;;;;;;;7.63;6.80;;;;;;;;;;2611372;54;20423;-79
2023/09/23 22:18:01;;;;;;;8.10;7.30;;;;;;;;;;2612105;39;20710;-80
2023/09/23 22:23:31;;;;;;;12.73;7.20;;;;;;;;;;2612556;54;20403;-79
2023/09/23 22:29:01;;;;;;;13.70;7.67;;;;;;;;;;2611422;39;20752;-77
2023/09/23 22:34:32;;;;;;;8.77;6.60;;;;;;;;;;2611123;54;20745;-78
2023/09/23 22:40:03;;;;;;;8.90;7.33;;;;;;;;;;2610651;54;20391;-77
2023/09/23 22:45:33;;;;;;;10.30;7.33;;;;;;;;;;2611377;39;20772;-78
2023/09/23 22:51:04;;;;;;;12.60;9.17;;;;;;;;;;2610316;54;20406;-77
2023/09/23 22:56:34;;;;;;;11.20;8.50;;;;;;;;;;2610602;54;20395;-78
2023/09/23 23:02:04;;;;;;;11.00;7.27;;;;;;;;;;2611105;54;20418;-78
2023/09/23 23:07:36;;;;;;;12.33;8.10;;;;;;;;;;2612578;54;20470;-77
2023/09/23 23:13:09;;;;;;;11.30;8.40;;;;;;;;;;2610983;54;20944;-77
2023/09/23 23:18:39;;;;;;;11.73;8.33;;;;;;;;;;2610997;54;20379;-78
2023/09/23 23:24:10;;;;;;;10.03;9.03;;;;;;;;;;2611763;54;20418;-76
2023/09/23 23:29:39;;;;;;;9.43;7.10;;;;;;;;;;2612019;54;20410;-77
2023/09/23 23:35:09;;;;;;;14.30;8.17;;;;;;;;;;2611683;54;20395;-76
2023/09/23 23:40:39;;;;;;;12.60;9.47;;;;;;;;;;2612242;54;20359;-78
2023/09/23 23:46:09;;;;;;;12.47;8.00;;;;;;;;;;2612038;31;20900;-79
2023/09/23 23:51:38;;;;;;;11.47;9.30;;;;;;;;;;2611850;54;20366;-78
2023/09/23 23:57:08;;;;;;;11.27;9.30;;;;;;;;;;2609304;54;20394;-78
